createdAt,value
2022-10-23T00:00:33.201Z,99.9
2022-10-23T00:01:49.495Z,100
2022-10-23T00:03:04.792Z,100
2022-10-23T00:04:21.087Z,100
2022-10-23T00:05:37.396Z,100
2022-10-23T00:06:53.687Z,100
2022-10-23T00:08:09.974Z,100
2022-10-23T00:09:26.260Z,100
2022-10-23T00:10:42.561Z,100
2022-10-23T00:11:58.850Z,100
2022-10-23T00:13:15.143Z,100
2022-10-23T00:14:31.442Z,100
2022-10-23T00:15:47.723Z,100
2022-10-23T00:17:04.031Z,100
2022-10-23T00:18:20.319Z,100
2022-10-23T00:19:35.630Z,99.9
2022-10-23T00:20:51.924Z,99.8
2022-10-23T00:22:08.202Z,99.9
2022-10-23T00:23:24.502Z,99.8
2022-10-23T00:24:40.803Z,99.9
2022-10-23T00:25:57.084Z,99.9
2022-10-23T00:27:13.382Z,100
2022-10-23T00:28:29.666Z,100
2022-10-23T00:29:45.974Z,100
2022-10-23T00:31:02.266Z,100
2022-10-23T00:32:18.544Z,100
2022-10-23T00:33:34.843Z,100
2022-10-23T00:34:51.138Z,100
2022-10-23T00:36:06.438Z,100
2022-10-23T00:37:22.728Z,100
2022-10-23T00:38:39.038Z,100
2022-10-23T00:39:55.330Z,100
2022-10-23T00:41:11.608Z,100
2022-10-23T00:42:27.905Z,100
2022-10-23T00:43:44.210Z,100
2022-10-23T00:45:00.497Z,100
2022-10-23T00:46:16.792Z,100
2022-10-23T00:47:33.071Z,100
2022-10-23T00:48:49.374Z,100
2022-10-23T00:50:05.662Z,100
2022-10-23T00:51:21.954Z,100
2022-10-23T00:52:37.269Z,100
2022-10-23T00:53:53.569Z,100
2022-10-23T00:55:09.855Z,100
2022-10-23T00:57:42.427Z,100
2022-10-23T00:58:58.737Z,100
2022-10-23T01:00:15.031Z,100
2022-10-23T01:01:31.322Z,100
2022-10-23T01:02:47.598Z,100
2022-10-23T01:05:20.183Z,100
2022-10-23T01:06:36.455Z,100
2022-10-23T01:07:52.765Z,100
2022-10-23T01:09:08.072Z,100
2022-10-23T01:10:24.368Z,100
2022-10-23T01:11:40.641Z,100
2022-10-23T01:12:56.938Z,100
2022-10-23T01:14:13.241Z,100
2022-10-23T01:15:29.535Z,100
2022-10-23T01:16:45.820Z,100
2022-10-23T01:18:02.119Z,100
2022-10-23T01:19:18.399Z,100
2022-10-23T01:20:34.706Z,100
2022-10-23T01:21:51.000Z,100
2022-10-23T01:23:07.291Z,100
2022-10-23T01:24:23.570Z,100
2022-10-23T01:25:38.883Z,100
2022-10-23T01:26:55.187Z,100
2022-10-23T01:28:11.472Z,100
2022-10-23T01:29:27.768Z,100
2022-10-23T01:30:44.061Z,100
2022-10-23T01:32:00.353Z,100
2022-10-23T01:33:15.671Z,100
2022-10-23T01:34:31.960Z,100
2022-10-23T01:35:48.249Z,100
2022-10-23T01:37:04.545Z,100
2022-10-23T01:38:20.845Z,100
2022-10-23T01:39:37.135Z,100
2022-10-23T01:40:53.413Z,100
2022-10-23T01:42:09.705Z,100
2022-10-23T01:43:26.015Z,100
2022-10-23T01:44:42.303Z,100
2022-10-23T01:45:58.584Z,100
2022-10-23T01:47:14.879Z,100
2022-10-23T01:48:31.169Z,100
2022-10-23T01:49:46.494Z,100
2022-10-23T01:51:02.784Z,100
2022-10-23T01:52:19.075Z,100
2022-10-23T01:53:35.362Z,100
2022-10-23T01:54:51.659Z,100
2022-10-23T01:56:07.943Z,100
2022-10-23T01:57:24.243Z,100
2022-10-23T01:58:40.541Z,100
2022-10-23T01:59:56.829Z,100
2022-10-23T02:02:29.419Z,100
2022-10-23T02:03:45.705Z,100
2022-10-23T02:05:01.997Z,100
2022-10-23T02:06:17.298Z,100
2022-10-23T02:07:33.593Z,100
2022-10-23T02:08:49.888Z,100
2022-10-23T02:10:06.187Z,100
2022-10-23T02:11:22.481Z,100
2022-10-23T02:12:38.767Z,100
2022-10-23T02:13:55.065Z,100
2022-10-23T02:15:11.359Z,100
2022-10-23T02:16:27.636Z,100
2022-10-23T02:17:43.937Z,100
2022-10-23T02:19:00.224Z,100
2022-10-23T02:20:16.526Z,100
2022-10-23T02:21:32.817Z,100
2022-10-23T02:22:48.117Z,100
2022-10-23T02:24:04.417Z,100
2022-10-23T02:25:20.714Z,100
2022-10-23T02:26:36.993Z,100
2022-10-23T02:27:53.300Z,100
2022-10-23T02:29:09.583Z,100
2022-10-23T02:30:25.884Z,100
2022-10-23T02:31:42.176Z,100
2022-10-23T02:32:58.465Z,100
2022-10-23T02:34:14.754Z,100
2022-10-23T02:35:31.053Z,100
2022-10-23T02:36:47.346Z,100
2022-10-23T02:38:03.638Z,100
2022-10-23T02:39:18.954Z,100
2022-10-23T02:40:35.244Z,100
2022-10-23T02:41:51.519Z,100
2022-10-23T02:43:07.825Z,100
2022-10-23T02:44:24.115Z,100
2022-10-23T02:45:40.407Z,100
2022-10-23T02:46:56.690Z,100
2022-10-23T02:48:12.990Z,100
2022-10-23T02:49:29.283Z,100
2022-10-23T02:50:45.000Z,100
2022-10-23T02:52:01.864Z,100
2022-10-23T02:53:18.161Z,100
2022-10-23T02:54:34.445Z,100
2022-10-23T02:55:49.758Z,100
2022-10-23T02:57:06.047Z,100
2022-10-23T02:58:22.359Z,100
2022-10-23T02:59:38.634Z,100
2022-10-23T03:00:54.926Z,100
2022-10-23T03:02:11.216Z,100
2022-10-23T03:03:27.526Z,100
2022-10-23T03:04:43.809Z,100
2022-10-23T03:06:00.109Z,100
2022-10-23T03:07:16.400Z,100
2022-10-23T03:08:32.691Z,100
2022-10-23T03:09:48.989Z,100
2022-10-23T03:11:05.277Z,100
2022-10-23T03:12:20.584Z,100
2022-10-23T03:13:36.883Z,100
2022-10-23T03:14:53.160Z,100
2022-10-23T03:16:09.455Z,100
2022-10-23T03:17:25.760Z,100
2022-10-23T03:18:42.050Z,100
2022-10-23T03:19:58.339Z,100
2022-10-23T03:21:14.630Z,100
2022-10-23T03:22:30.929Z,100
2022-10-23T03:23:47.210Z,100
2022-10-23T03:25:03.498Z,100
2022-10-23T03:26:19.798Z,100
2022-10-23T03:27:36.084Z,100
2022-10-23T03:28:51.392Z,100
2022-10-23T03:30:07.689Z,100
2022-10-23T03:31:23.985Z,100
2022-10-23T03:32:40.284Z,100
2022-10-23T03:33:56.575Z,100
2022-10-23T03:35:12.875Z,100
2022-10-23T03:36:29.162Z,100
2022-10-23T03:37:45.448Z,100
2022-10-23T03:39:01.749Z,100
2022-10-23T03:40:18.040Z,100
2022-10-23T03:41:34.334Z,100
2022-10-23T03:42:50.615Z,100
2022-10-23T03:44:06.911Z,100
2022-10-23T03:45:22.230Z,100
2022-10-23T03:46:38.521Z,100
2022-10-23T03:47:54.801Z,100
2022-10-23T03:49:11.104Z,100
2022-10-23T03:50:27.389Z,100
2022-10-23T03:51:43.681Z,100
2022-10-23T03:52:59.972Z,100
2022-10-23T03:54:16.267Z,100
2022-10-23T03:55:32.557Z,100
2022-10-23T03:56:48.864Z,100
2022-10-23T03:58:05.142Z,100
2022-10-23T03:59:21.450Z,100
2022-10-23T04:00:37.742Z,100
2022-10-23T04:01:53.032Z,100
2022-10-23T04:03:09.337Z,100
2022-10-23T04:04:25.619Z,100
2022-10-23T04:05:41.916Z,100
2022-10-23T04:06:58.217Z,100
2022-10-23T04:08:14.513Z,100
2022-10-23T04:09:30.792Z,100
2022-10-23T04:10:47.086Z,100
2022-10-23T04:12:03.390Z,100
2022-10-23T04:13:19.666Z,100
2022-10-23T04:14:35.962Z,100
2022-10-23T04:15:52.264Z,100
2022-10-23T04:17:08.549Z,100
2022-10-23T04:18:23.861Z,100
2022-10-23T04:19:40.154Z,100
2022-10-23T04:20:56.439Z,100
2022-10-23T04:22:12.745Z,100
2022-10-23T04:23:29.025Z,100
2022-10-23T04:24:45.334Z,100
2022-10-23T04:26:01.612Z,100
2022-10-23T04:27:17.906Z,100
2022-10-23T04:28:34.203Z,100
2022-10-23T04:29:50.487Z,100
2022-10-23T04:31:06.780Z,100
2022-10-23T04:32:23.089Z,100
2022-10-23T04:33:39.369Z,100
2022-10-23T04:34:54.683Z,100
2022-10-23T04:36:10.987Z,100
2022-10-23T04:37:27.276Z,100
2022-10-23T04:38:43.556Z,100
2022-10-23T04:39:59.857Z,100
2022-10-23T04:41:16.157Z,100
2022-10-23T04:42:32.435Z,100
2022-10-23T04:43:48.735Z,100
2022-10-23T04:45:05.031Z,100
2022-10-23T04:46:21.316Z,100
2022-10-23T04:47:37.621Z,100
2022-10-23T04:48:53.909Z,100
2022-10-23T04:50:10.195Z,100
2022-10-23T04:51:25.512Z,100
2022-10-23T04:52:41.798Z,100
2022-10-23T04:53:58.091Z,100
2022-10-23T04:55:14.383Z,100
2022-10-23T04:56:30.684Z,100
2022-10-23T04:57:46.964Z,100
2022-10-23T04:59:03.254Z,100
2022-10-23T05:00:19.544Z,100
2022-10-23T05:01:35.846Z,100
2022-10-23T05:02:52.137Z,100
2022-10-23T05:04:08.421Z,100
2022-10-23T05:05:24.727Z,100
2022-10-23T05:06:41.009Z,100
2022-10-23T05:07:56.325Z,100
2022-10-23T05:09:12.620Z,100
2022-10-23T05:10:28.904Z,100
2022-10-23T05:11:45.197Z,100
2022-10-23T05:13:01.446Z,100
2022-10-23T05:14:17.726Z,100
2022-10-23T05:15:33.983Z,100
2022-10-23T05:16:50.219Z,100
2022-10-23T05:18:06.462Z,100
2022-10-23T05:19:22.693Z,100
2022-10-23T05:20:38.935Z,100
2022-10-23T05:21:55.190Z,100
2022-10-23T05:23:11.432Z,100
2022-10-23T05:24:26.688Z,100
2022-10-23T05:25:42.929Z,100
2022-10-23T05:26:59.168Z,100
2022-10-23T05:28:15.407Z,100
2022-10-23T05:29:31.645Z,100
2022-10-23T05:30:47.883Z,100
2022-10-23T05:32:04.114Z,100
2022-10-23T05:33:20.359Z,100
2022-10-23T05:34:36.582Z,100
2022-10-23T05:35:52.835Z,100
2022-10-23T05:37:09.062Z,100
2022-10-23T05:38:25.306Z,100
2022-10-23T05:39:41.542Z,100
2022-10-23T05:40:56.811Z,100
2022-10-23T05:42:13.039Z,100
2022-10-23T05:43:29.273Z,100
2022-10-23T05:44:45.520Z,100
2022-10-23T05:46:01.759Z,100
2022-10-23T05:47:17.992Z,100
2022-10-23T05:48:33.246Z,100
2022-10-23T05:49:49.502Z,100
2022-10-23T05:51:05.726Z,100
2022-10-23T05:52:21.972Z,100
2022-10-23T05:53:38.199Z,100
2022-10-23T05:54:54.450Z,100
2022-10-23T05:56:10.688Z,100
2022-10-23T05:57:26.931Z,100
2022-10-23T05:58:43.159Z,100
2022-10-23T05:59:59.407Z,100
2022-10-23T06:01:15.649Z,100
2022-10-23T06:02:31.873Z,100
2022-10-23T06:03:48.127Z,100
2022-10-23T06:05:03.381Z,100
2022-10-23T06:06:19.614Z,100
2022-10-23T06:07:35.848Z,100
2022-10-23T06:08:52.081Z,100
2022-10-23T06:10:08.335Z,100
2022-10-23T06:11:24.000Z,100
2022-10-23T06:12:40.814Z,100
2022-10-23T06:13:57.056Z,100
2022-10-23T06:15:13.295Z,100
2022-10-23T06:16:29.515Z,100
2022-10-23T06:17:45.754Z,100
2022-10-23T06:19:02.005Z,100
2022-10-23T06:20:18.232Z,100
2022-10-23T06:21:33.490Z,100
2022-10-23T06:22:49.731Z,100
2022-10-23T06:24:05.980Z,100
2022-10-23T06:25:22.203Z,100
2022-10-23T06:26:38.446Z,100
2022-10-23T06:27:54.699Z,100
2022-10-23T06:29:10.937Z,100
2022-10-23T06:30:27.168Z,100
2022-10-23T06:31:43.396Z,100
2022-10-23T06:32:59.635Z,100
2022-10-23T06:34:15.879Z,100
2022-10-23T06:35:32.129Z,100
2022-10-23T06:36:48.369Z,100
2022-10-23T06:38:03.615Z,100
2022-10-23T06:39:19.861Z,100
2022-10-23T06:40:36.103Z,100
2022-10-23T06:41:52.329Z,100
2022-10-23T06:43:08.566Z,100
2022-10-23T06:44:24.810Z,100
2022-10-23T06:45:41.058Z,100
2022-10-23T06:46:57.287Z,100
2022-10-23T06:48:13.529Z,100
2022-10-23T06:49:29.761Z,100
2022-10-23T06:50:46.008Z,100
2022-10-23T06:52:02.249Z,100
2022-10-23T06:53:18.491Z,100
2022-10-23T06:54:34.838Z,100
2022-10-23T06:55:51.075Z,100
2022-10-23T06:57:07.319Z,100
2022-10-23T06:58:23.552Z,100
2022-10-23T06:59:39.794Z,100
2022-10-23T07:00:56.046Z,100
2022-10-23T07:02:12.274Z,100
2022-10-23T07:03:28.508Z,100
2022-10-23T07:04:44.746Z,100
2022-10-23T07:06:00.992Z,100
2022-10-23T07:07:17.223Z,100
2022-10-23T07:08:33.459Z,100
2022-10-23T07:09:49.708Z,100
2022-10-23T07:11:04.959Z,100
2022-10-23T07:12:21.201Z,100
2022-10-23T07:13:37.435Z,100
2022-10-23T07:14:53.681Z,100
2022-10-23T07:16:09.909Z,100
2022-10-23T07:17:26.144Z,99.6
2022-10-23T07:18:42.390Z,99.2
2022-10-23T07:19:58.633Z,99.3
2022-10-23T07:21:14.875Z,99.1
2022-10-23T07:22:31.113Z,99
2022-10-23T07:23:47.343Z,98.8
2022-10-23T07:25:03.586Z,98.5
2022-10-23T07:26:19.821Z,98.3
2022-10-23T07:27:35.069Z,97.7
2022-10-23T07:28:51.308Z,97.5
2022-10-23T07:30:07.553Z,97.5
2022-10-23T07:31:23.803Z,96.7
2022-10-23T07:32:40.024Z,96.4
2022-10-23T07:33:56.278Z,96.2
2022-10-23T07:35:12.513Z,95.4
2022-10-23T07:36:28.749Z,94.4
2022-10-23T07:37:44.991Z,94.8
2022-10-23T07:39:01.231Z,93.8
2022-10-23T07:40:17.475Z,93.2
2022-10-23T07:41:33.715Z,92.8
2022-10-23T07:42:49.950Z,92.8
2022-10-23T07:44:05.189Z,92.1
2022-10-23T07:45:21.427Z,91.1
2022-10-23T07:46:37.678Z,90.9
2022-10-23T07:47:53.907Z,90.4
2022-10-23T07:49:10.141Z,90.1
2022-10-23T07:50:26.385Z,90.7
2022-10-23T07:51:42.629Z,90.3
2022-10-23T07:52:58.875Z,89.9
2022-10-23T07:54:15.109Z,89.6
2022-10-23T07:55:31.347Z,89.1
2022-10-23T07:56:47.584Z,88.5
2022-10-23T07:58:03.812Z,88.4
2022-10-23T07:59:20.058Z,88.3
2022-10-23T08:00:35.311Z,88.7
2022-10-23T08:01:51.557Z,88.4
2022-10-23T08:03:07.789Z,88
2022-10-23T08:04:24.035Z,88.5
2022-10-23T08:05:40.268Z,88.1
2022-10-23T08:06:56.517Z,88.3
2022-10-23T08:08:12.752Z,88.4
2022-10-23T08:09:28.983Z,88.1
2022-10-23T08:10:45.214Z,87.8
2022-10-23T08:12:01.458Z,87.7
2022-10-23T08:13:17.697Z,87.4
2022-10-23T08:14:33.933Z,87.2
2022-10-23T08:15:50.167Z,86.7
2022-10-23T08:17:05.422Z,86.4
2022-10-23T08:18:21.678Z,86.5
2022-10-23T08:19:37.916Z,86.3
2022-10-23T08:20:54.145Z,86.3
2022-10-23T08:22:10.386Z,86.2
2022-10-23T08:23:26.618Z,86.4
2022-10-23T08:24:42.855Z,86
2022-10-23T08:25:59.107Z,86
2022-10-23T08:27:15.329Z,85.7
2022-10-23T08:28:31.582Z,85.4
2022-10-23T08:29:47.817Z,85.1
2022-10-23T08:31:04.053Z,85.2
2022-10-23T08:32:20.290Z,84.5
2022-10-23T08:33:35.546Z,83.7
2022-10-23T08:34:51.777Z,83.6
2022-10-23T08:36:08.025Z,83.1
2022-10-23T08:37:24.265Z,82.5
2022-10-23T08:38:40.510Z,81.8
2022-10-23T08:39:56.736Z,81.4
2022-10-23T08:41:12.972Z,81.5
2022-10-23T08:42:29.211Z,81.6
2022-10-23T08:43:45.458Z,82
2022-10-23T08:45:01.698Z,81.9
2022-10-23T08:46:17.933Z,82.1
2022-10-23T08:47:34.174Z,82.2
2022-10-23T08:48:50.409Z,82.1
2022-10-23T08:50:05.667Z,82.3
2022-10-23T08:51:21.907Z,81.9
2022-10-23T08:52:38.130Z,82.5
2022-10-23T08:53:54.385Z,82.2
2022-10-23T08:55:10.628Z,81.9
2022-10-23T08:56:26.846Z,82.1
2022-10-23T08:57:43.101Z,81.9
2022-10-23T08:58:59.337Z,81.7
2022-10-23T09:00:15.575Z,81.7
2022-10-23T09:01:31.821Z,80.4
2022-10-23T09:02:48.045Z,80.4
2022-10-23T09:04:04.281Z,80
2022-10-23T09:05:20.517Z,79.1
2022-10-23T09:06:35.769Z,78.4
2022-10-23T09:07:52.026Z,77.9
2022-10-23T09:09:08.251Z,77.2
2022-10-23T09:10:24.485Z,77.1
2022-10-23T09:11:40.731Z,75.4
2022-10-23T09:12:56.977Z,74.3
2022-10-23T09:14:13.209Z,73.5
2022-10-23T09:15:29.439Z,70.3
2022-10-23T09:16:45.683Z,67.1
2022-10-23T09:18:01.934Z,66
2022-10-23T09:19:18.165Z,64.2
2022-10-23T09:20:34.399Z,65.8
2022-10-23T09:21:50.635Z,64.4
2022-10-23T09:23:05.901Z,63.8
2022-10-23T09:24:22.131Z,63.3
2022-10-23T09:25:38.370Z,61.4
2022-10-23T09:26:54.603Z,61
2022-10-23T09:28:10.848Z,60.3
2022-10-23T09:29:27.081Z,61.5
2022-10-23T09:30:43.334Z,62.4
2022-10-23T09:31:59.572Z,62.3
2022-10-23T09:33:15.796Z,61.7
2022-10-23T09:34:32.050Z,60.7
2022-10-23T09:35:48.287Z,60.8
2022-10-23T09:37:04.510Z,60.1
2022-10-23T09:38:20.752Z,59.2
2022-10-23T09:39:36.009Z,60.5
2022-10-23T09:40:52.242Z,61.7
2022-10-23T09:42:08.484Z,61.7
2022-10-23T09:43:24.734Z,63.4
2022-10-23T09:44:40.965Z,63
2022-10-23T09:45:57.204Z,63.4
2022-10-23T09:47:13.442Z,64.9
2022-10-23T09:48:29.675Z,65.5
2022-10-23T09:49:45.912Z,66.2
2022-10-23T09:51:02.150Z,66.9
2022-10-23T09:52:18.398Z,67.2
2022-10-23T09:53:34.627Z,68.7
2022-10-23T09:54:50.882Z,68.4
2022-10-23T09:56:06.130Z,68.4
2022-10-23T09:57:22.375Z,68.5
2022-10-23T09:58:38.613Z,67.5
2022-10-23T09:59:54.844Z,66.3
2022-10-23T10:01:11.083Z,65.1
2022-10-23T10:02:27.314Z,65
2022-10-23T10:03:42.577Z,65.8
2022-10-23T10:04:58.815Z,65.2
2022-10-23T10:06:15.067Z,65.4
2022-10-23T10:07:31.291Z,66.7
2022-10-23T10:08:47.525Z,66.3
2022-10-23T10:10:03.784Z,66.2
2022-10-23T10:11:20.017Z,65.2
2022-10-23T10:12:36.248Z,64.9
2022-10-23T10:13:52.490Z,65.2
2022-10-23T10:15:08.734Z,63.8
2022-10-23T10:16:24.956Z,64
2022-10-23T10:17:41.197Z,63.1
2022-10-23T10:18:57.445Z,62.2
2022-10-23T10:20:12.701Z,62.1
2022-10-23T10:21:28.928Z,61.3
2022-10-23T10:22:45.169Z,60.9
2022-10-23T10:24:01.415Z,61.1
2022-10-23T10:25:17.640Z,60.8
2022-10-23T10:26:33.886Z,61.7
2022-10-23T10:27:50.129Z,63.1
2022-10-23T10:29:06.365Z,63.4
2022-10-23T10:30:22.595Z,64.3
2022-10-23T10:31:38.840Z,65.3
2022-10-23T10:32:55.088Z,63.8
2022-10-23T10:34:11.317Z,64.3
2022-10-23T10:35:27.563Z,64.3
2022-10-23T10:36:42.805Z,64.3
2022-10-23T10:37:59.042Z,64.5
2022-10-23T10:39:15.297Z,64.2
2022-10-23T10:40:31.538Z,64.8
2022-10-23T10:41:47.774Z,63.8
2022-10-23T10:43:04.004Z,64.7
2022-10-23T10:44:20.245Z,64.5
2022-10-23T10:45:36.489Z,65.3
2022-10-23T10:46:52.730Z,63.5
2022-10-23T10:48:08.951Z,63.3
2022-10-23T10:49:25.195Z,62.1
2022-10-23T10:50:41.446Z,60.2
2022-10-23T10:51:57.684Z,60.1
2022-10-23T10:53:12.927Z,58.2
2022-10-23T10:54:29.176Z,58.1
2022-10-23T10:55:45.403Z,56
2022-10-23T10:57:01.646Z,55.6
2022-10-23T10:58:17.885Z,55.1
2022-10-23T10:59:34.122Z,55.3
2022-10-23T11:00:50.356Z,52.9
2022-10-23T11:02:06.610Z,51.7
2022-10-23T11:03:22.847Z,50.5
2022-10-23T11:04:39.082Z,51.3
2022-10-23T11:05:55.324Z,51.6
2022-10-23T11:07:11.550Z,51.4
2022-10-23T11:08:27.802Z,51.3
2022-10-23T11:09:43.058Z,51.5
2022-10-23T11:10:59.280Z,51.1
2022-10-23T11:12:15.524Z,50.3
2022-10-23T11:13:31.761Z,50.1
2022-10-23T11:14:48.009Z,49.1
2022-10-23T11:16:04.239Z,49.5
2022-10-23T11:17:20.488Z,48.8
2022-10-23T11:18:36.731Z,49.3
2022-10-23T11:19:52.969Z,49.9
2022-10-23T11:21:09.195Z,51.4
2022-10-23T11:22:25.443Z,49.1
2022-10-23T11:23:41.664Z,48
2022-10-23T11:24:57.914Z,46.9
2022-10-23T11:26:13.179Z,46
2022-10-23T11:27:29.406Z,47.4
2022-10-23T11:28:45.650Z,46.4
2022-10-23T11:30:01.887Z,45.1
2022-10-23T11:31:18.127Z,45.5
2022-10-23T11:32:34.353Z,45.6
2022-10-23T11:33:50.609Z,46.3
2022-10-23T11:35:06.834Z,47.2
2022-10-23T11:36:23.081Z,47.1
2022-10-23T11:37:39.310Z,47.7
2022-10-23T11:38:55.560Z,47.6
2022-10-23T11:40:11.792Z,47.7
2022-10-23T11:41:28.025Z,48.3
2022-10-23T11:42:43.287Z,48
2022-10-23T11:43:59.530Z,48
2022-10-23T11:45:15.760Z,48.8
2022-10-23T11:46:31.994Z,49.3
2022-10-23T11:47:48.249Z,49.7
2022-10-23T11:49:04.471Z,48.7
2022-10-23T11:50:20.710Z,50
2022-10-23T11:51:36.948Z,49.4
2022-10-23T11:52:53.205Z,49.1
2022-10-23T11:54:09.429Z,49.4
2022-10-23T11:55:25.662Z,49.5
2022-10-23T11:56:41.910Z,50.7
2022-10-23T11:57:58.158Z,50.7
2022-10-23T11:59:13.396Z,51.1
2022-10-23T12:00:29.638Z,51.2
2022-10-23T12:01:45.871Z,51.4
2022-10-23T12:03:02.127Z,53
2022-10-23T12:04:18.369Z,53.2
2022-10-23T12:05:34.589Z,54.4
2022-10-23T12:06:50.825Z,53.1
2022-10-23T12:08:07.082Z,52.7
2022-10-23T12:09:23.323Z,52.3
2022-10-23T12:10:39.549Z,53.5
2022-10-23T12:11:55.797Z,54.4
2022-10-23T12:13:12.027Z,54.1
2022-10-23T12:14:28.269Z,53.7
2022-10-23T12:15:43.517Z,53.6
2022-10-23T12:16:59.765Z,53
2022-10-23T12:18:16.003Z,51.7
2022-10-23T12:19:32.242Z,51.2
2022-10-23T12:20:48.485Z,50.7
2022-10-23T12:22:04.719Z,51.3
2022-10-23T12:23:20.950Z,50
2022-10-23T12:24:37.194Z,50.1
2022-10-23T12:25:53.434Z,48.9
2022-10-23T12:27:09.673Z,48.1
2022-10-23T12:28:25.906Z,48.9
2022-10-23T12:29:42.149Z,49.7
2022-10-23T12:30:58.373Z,51
2022-10-23T12:32:13.645Z,52.2
2022-10-23T12:33:29.870Z,55
2022-10-23T12:34:46.108Z,53.5
2022-10-23T12:36:02.353Z,54.9
2022-10-23T12:37:18.594Z,56.2
2022-10-23T12:38:34.837Z,56.8
2022-10-23T12:39:51.060Z,57.5
2022-10-23T12:41:07.311Z,57.1
2022-10-23T12:42:23.535Z,58.3
2022-10-23T12:43:39.790Z,58
2022-10-23T12:44:56.026Z,58.4
2022-10-23T12:46:12.256Z,59.7
2022-10-23T12:47:28.509Z,60.4
2022-10-23T12:48:43.756Z,61.1
2022-10-23T12:49:59.991Z,61.4
2022-10-23T12:51:16.240Z,60.7
2022-10-23T12:52:32.459Z,60.2
2022-10-23T12:53:48.716Z,60.7
2022-10-23T12:55:04.955Z,60.4
2022-10-23T12:56:21.184Z,59.4
2022-10-23T12:57:37.432Z,59.9
2022-10-23T12:58:53.650Z,59.8
2022-10-23T13:00:09.902Z,60.4
2022-10-23T13:01:26.148Z,60.4
2022-10-23T13:02:42.370Z,60.9
2022-10-23T13:03:58.626Z,61.7
2022-10-23T13:05:13.878Z,61.5
2022-10-23T13:06:30.105Z,61.7
2022-10-23T13:07:46.350Z,62.6
2022-10-23T13:09:02.594Z,63.2
2022-10-23T13:10:18.822Z,62.8
2022-10-23T13:11:35.064Z,61.9
2022-10-23T13:12:51.301Z,61
2022-10-23T13:14:07.547Z,61.4
2022-10-23T13:15:23.784Z,59.9
2022-10-23T13:16:40.022Z,59.2
2022-10-23T13:17:56.260Z,59.5
2022-10-23T13:19:12.500Z,60.4
2022-10-23T13:20:28.727Z,60.5
2022-10-23T13:21:43.977Z,61.4
2022-10-23T13:23:00.227Z,61.9
2022-10-23T13:24:16.460Z,62.3
2022-10-23T13:25:32.699Z,62.3
2022-10-23T13:26:48.943Z,62.4
2022-10-23T13:28:05.172Z,63
2022-10-23T13:29:21.425Z,63.3
2022-10-23T13:30:37.652Z,63.3
2022-10-23T13:31:53.896Z,63.2
2022-10-23T13:33:10.126Z,62.9
2022-10-23T13:34:26.365Z,63.8
2022-10-23T13:35:42.613Z,63.9
2022-10-23T13:36:58.848Z,64
2022-10-23T13:38:14.096Z,64.2
2022-10-23T13:39:30.346Z,64.3
2022-10-23T13:40:46.568Z,64.9
2022-10-23T13:42:02.825Z,64.6
2022-10-23T13:43:19.051Z,65
2022-10-23T13:44:35.297Z,64.1
2022-10-23T13:45:51.524Z,64.5
2022-10-23T13:47:07.781Z,64.5
2022-10-23T13:48:24.001Z,65.1
2022-10-23T13:49:40.257Z,64.6
2022-10-23T13:50:56.485Z,65.3
2022-10-23T13:52:12.721Z,65.2
2022-10-23T13:53:28.968Z,65.1
2022-10-23T13:54:44.221Z,65
2022-10-23T13:56:00.468Z,66.4
2022-10-23T13:57:16.705Z,65.8
2022-10-23T13:58:32.933Z,66.2
2022-10-23T13:59:49.164Z,65.5
2022-10-23T14:01:05.420Z,65.5
2022-10-23T14:02:21.642Z,65.2
2022-10-23T14:03:37.890Z,65.8
2022-10-23T14:04:54.127Z,65.5
2022-10-23T14:06:10.375Z,65.5
2022-10-23T14:07:26.604Z,66
2022-10-23T14:08:42.843Z,65.6
2022-10-23T14:09:59.087Z,65.9
2022-10-23T14:11:14.331Z,66.5
2022-10-23T14:12:30.574Z,66.3
2022-10-23T14:13:46.818Z,66.2
2022-10-23T14:15:03.053Z,66.9
2022-10-23T14:16:19.289Z,67.2
2022-10-23T14:17:35.520Z,67.2
2022-10-23T14:18:50.798Z,67.7
2022-10-23T14:20:07.032Z,68
2022-10-23T14:21:23.265Z,68
2022-10-23T14:22:39.508Z,68.2
2022-10-23T14:23:55.741Z,68.7
2022-10-23T14:25:11.979Z,69.5
2022-10-23T14:26:28.228Z,69
2022-10-23T14:27:44.453Z,69.2
2022-10-23T14:29:00.697Z,68.9
2022-10-23T14:30:16.938Z,69
2022-10-23T14:31:33.180Z,69.3
2022-10-23T14:32:49.415Z,69.2
2022-10-23T14:34:05.644Z,69
2022-10-23T14:35:20.906Z,69.7
2022-10-23T14:36:37.143Z,69.9
2022-10-23T14:37:53.383Z,69.1
2022-10-23T14:39:09.622Z,69.7
2022-10-23T14:40:25.858Z,70
2022-10-23T14:41:42.096Z,70.4
2022-10-23T14:42:58.348Z,69.8
2022-10-23T14:44:14.570Z,70
2022-10-23T14:45:30.819Z,70
2022-10-23T14:46:47.051Z,69.8
2022-10-23T14:48:03.282Z,70
2022-10-23T14:49:19.526Z,70
2022-10-23T14:50:35.768Z,69.8
2022-10-23T14:51:51.015Z,69.9
2022-10-23T14:53:07.267Z,69.6
2022-10-23T14:54:23.499Z,69.7
2022-10-23T14:55:39.740Z,70
2022-10-23T14:56:55.988Z,70.1
2022-10-23T14:58:12.226Z,70
2022-10-23T14:59:28.451Z,70.1
2022-10-23T15:00:44.690Z,70.2
2022-10-23T15:02:00.930Z,69.9
2022-10-23T15:03:17.177Z,70.6
2022-10-23T15:04:33.418Z,70.3
2022-10-23T15:05:49.656Z,70.3
2022-10-23T15:07:05.892Z,70.6
2022-10-23T15:08:21.150Z,71.1
2022-10-23T15:09:37.375Z,71.3
2022-10-23T15:10:53.623Z,71.5
2022-10-23T15:12:09.865Z,71.4
2022-10-23T15:13:26.087Z,71.9
2022-10-23T15:14:42.342Z,71.7
2022-10-23T15:15:58.582Z,72
2022-10-23T15:17:14.809Z,71.6
2022-10-23T15:18:31.043Z,72
2022-10-23T15:19:47.285Z,72
2022-10-23T15:21:03.518Z,72
2022-10-23T15:22:19.758Z,71.5
2022-10-23T15:23:36.015Z,71.5
2022-10-23T15:24:51.252Z,71.8
2022-10-23T15:26:07.493Z,71.9
2022-10-23T15:27:23.727Z,72.1
2022-10-23T15:28:39.971Z,72.4
2022-10-23T15:29:56.224Z,72.3
2022-10-23T15:31:12.452Z,72.6
2022-10-23T15:32:28.685Z,72
2022-10-23T15:33:44.936Z,72
2022-10-23T15:35:01.163Z,72.3
2022-10-23T15:36:17.407Z,71.8
2022-10-23T15:37:33.649Z,71.9
2022-10-23T15:38:49.886Z,72.1
2022-10-23T15:40:06.117Z,71.6
2022-10-23T15:41:21.371Z,71.4
2022-10-23T15:42:37.613Z,71.9
2022-10-23T15:43:53.864Z,71.9
2022-10-23T15:45:10.098Z,72
2022-10-23T15:46:26.328Z,72
2022-10-23T15:47:42.569Z,72.3
2022-10-23T15:48:58.820Z,72.3
2022-10-23T15:50:15.042Z,72.4
2022-10-23T15:51:31.284Z,72.3
2022-10-23T15:52:47.525Z,72.4
2022-10-23T15:54:03.763Z,72.3
2022-10-23T15:55:19.998Z,72.4
2022-10-23T15:56:36.241Z,72.6
2022-10-23T15:57:51.495Z,72.6
2022-10-23T15:59:07.730Z,72.5
2022-10-23T16:00:23.966Z,72.9
2022-10-23T16:01:40.212Z,72.8
2022-10-23T16:02:56.446Z,72.8
2022-10-23T16:04:12.683Z,72.9
2022-10-23T16:05:28.927Z,73.1
2022-10-23T16:06:45.166Z,73.3
2022-10-23T16:08:01.403Z,73.2
2022-10-23T16:09:17.643Z,73.1
2022-10-23T16:10:33.874Z,72.9
2022-10-23T16:11:50.125Z,73
2022-10-23T16:13:06.351Z,72.9
2022-10-23T16:14:21.620Z,72.8
2022-10-23T16:15:37.859Z,73
2022-10-23T16:16:54.083Z,72.9
2022-10-23T16:18:10.322Z,72.8
2022-10-23T16:19:26.562Z,72.9
2022-10-23T16:20:42.804Z,72.7
2022-10-23T16:21:59.036Z,72.8
2022-10-23T16:23:15.288Z,72.7
2022-10-23T16:24:31.515Z,72.9
2022-10-23T16:25:47.815Z,72.9
2022-10-23T16:27:04.113Z,73.2
2022-10-23T16:28:20.392Z,73.2
2022-10-23T16:29:36.683Z,73.1
2022-10-23T16:30:52.002Z,73.3
2022-10-23T16:32:08.295Z,73.4
2022-10-23T16:33:24.581Z,73.2
2022-10-23T16:34:40.887Z,73.5
2022-10-23T16:35:57.160Z,73.4
2022-10-23T16:37:13.460Z,73.7
2022-10-23T16:38:29.753Z,73.4
2022-10-23T16:39:46.057Z,73.4
2022-10-23T16:41:02.346Z,73.4
2022-10-23T16:42:18.643Z,73.3
2022-10-23T16:43:34.927Z,73.2
2022-10-23T16:44:51.223Z,73.2
2022-10-23T16:46:07.504Z,73.4
2022-10-23T16:47:22.812Z,73.2
2022-10-23T16:48:39.112Z,72.9
2022-10-23T16:49:55.413Z,72.6
2022-10-23T16:51:11.692Z,72.5
2022-10-23T16:52:27.995Z,72.8
2022-10-23T16:53:44.279Z,72.6
2022-10-23T16:55:00.571Z,72.7
2022-10-23T16:56:16.861Z,73
2022-10-23T16:57:33.154Z,73.2
2022-10-23T16:58:49.457Z,72.9
2022-10-23T17:00:05.741Z,73.2
2022-10-23T17:01:22.030Z,73.4
2022-10-23T17:02:38.333Z,73.4
2022-10-23T17:03:53.637Z,73.7
2022-10-23T17:05:09.939Z,73.9
2022-10-23T17:06:26.231Z,74
2022-10-23T17:07:42.519Z,74.4
2022-10-23T17:08:58.802Z,74.3
2022-10-23T17:10:15.103Z,74.7
2022-10-23T17:11:31.404Z,74.8
2022-10-23T17:12:47.687Z,75
2022-10-23T17:14:03.975Z,75.2
2022-10-23T17:15:20.281Z,75.3
2022-10-23T17:16:36.578Z,75.4